Time;durP1;ratioP1;P1;durP2;ratioP2;P2;SDS_P1;SDS_P2;PMS_P1;PMS_P2;Temp;Humidity;BMP_temperature;BMP_pressure;BME280_temperature;BME280_humidity;BME280_pressure;Samples;Min_cycle;Max_cycle;Signal;HPM_P1;HPM_P2
2024/04/18 00:00:33;;;;;;;16.03;8.17;;;5.20;99.90;;;;;;5414662;26;19995;-46
2024/04/18 00:02:59;;;;;;;13.73;7.47;;;5.20;99.90;;;;;;5414295;26;19996;-46
2024/04/18 00:05:32;;;;;;;16.30;8.30;;;5.20;99.90;;;;;;5414663;26;20006;-47
2024/04/18 00:07:58;;;;;;;16.67;9.10;;;5.30;99.90;;;;;;5417152;26;20414;-47
2024/04/18 00:10:24;;;;;;;19.67;8.97;;;5.30;99.90;;;;;;5418363;26;19995;-47
2024/04/18 00:12:50;;;;;;;15.20;8.47;;;5.30;99.90;;;;;;5418213;26;20000;-47
2024/04/18 00:15:22;;;;;;;17.93;9.17;;;5.40;99.90;;;;;;5417869;26;20087;-47
2024/04/18 00:17:55;;;;;;;16.77;9.23;;;5.40;99.90;;;;;;5417409;26;20007;-46
2024/04/18 00:20:25;;;;;;;18.67;9.53;;;5.40;99.90;;;;;;5418195;26;20455;-49
2024/04/18 00:22:53;;;;;;;18.23;9.47;;;5.40;99.90;;;;;;5418125;26;19995;-48
2024/04/18 00:25:27;;;;;;;18.57;9.47;;;5.40;99.90;;;;;;5418180;26;20089;-46
2024/04/18 00:27:53;;;;;;;16.67;8.77;;;5.40;99.90;;;;;;5417012;26;20007;-46
2024/04/18 00:30:41;;;;;;;17.40;9.30;;;5.40;99.90;;;;;;5418039;26;19995;-47
2024/04/18 00:33:07;;;;;;;15.02;8.63;;;5.40;99.90;;;;;;5418095;26;20073;-46
2024/04/18 00:35:37;;;;;;;15.25;7.88;;;5.40;99.90;;;;;;5417717;26;19995;-46
2024/04/18 00:38:15;;;;;;;12.20;7.67;;;5.40;99.90;;;;;;5417258;26;20009;-46
2024/04/18 00:40:45;;;;;;;17.60;8.37;;;5.40;99.90;;;;;;5416109;26;20376;-46
2024/04/18 00:43:19;;;;;;;14.73;8.07;;;5.40;99.90;;;;;;5417754;26;20148;-46
2024/04/18 00:45:50;;;;;;;14.50;7.70;;;5.40;99.90;;;;;;5417866;26;20007;-46
2024/04/18 00:48:24;;;;;;;13.18;7.00;;;5.40;99.90;;;;;;5416975;26;20006;-46
2024/04/18 00:50:52;;;;;;;11.77;6.90;;;5.40;99.90;;;;;;5417612;26;20002;-46
2024/04/18 00:53:19;;;;;;;12.93;6.80;;;5.40;99.90;;;;;;5417869;26;19999;-49
2024/04/18 00:55:49;;;;;;;13.93;6.73;;;5.40;99.90;;;;;;5418083;26;19996;-49
2024/04/18 00:58:16;;;;;;;11.20;6.63;;;5.40;99.90;;;;;;5416854;26;19991;-51
2024/04/18 01:00:45;;;;;;;11.63;6.63;;;5.40;99.90;;;;;;5417535;26;19999;-48
2024/04/18 01:03:30;;;;;;;12.43;6.40;;;5.40;99.90;;;;;;5417686;26;20002;-50
2024/04/18 01:06:08;;;;;;;14.83;6.77;;;5.40;99.90;;;;;;5417800;26;20006;-49
2024/04/18 01:08:54;;;;;;;12.27;6.83;;;5.40;99.90;;;;;;5416743;26;20038;-48
2024/04/18 01:11:30;;;;;;;11.30;6.47;;;5.40;99.90;;;;;;5416956;26;20073;-49
2024/04/18 01:13:58;;;;;;;12.63;7.03;;;5.40;99.90;;;;;;5417514;26;20010;-51
2024/04/18 01:16:24;;;;;;;15.33;7.27;;;5.40;99.90;;;;;;5417335;26;19996;-51
2024/04/18 01:18:51;;;;;;;10.83;6.23;;;5.40;99.90;;;;;;5415444;26;20398;-48
2024/04/18 01:21:17;;;;;;;14.73;6.63;;;5.40;99.90;;;;;;5417125;26;20063;-50
2024/04/18 01:23:43;;;;;;;14.73;6.50;;;5.30;99.90;;;;;;5417227;26;20004;-48
2024/04/18 01:26:12;;;;;;;12.63;6.70;;;5.30;99.90;;;;;;5417552;26;20069;-47
2024/04/18 01:28:38;;;;;;;;;;;5.30;99.90;;;;;;5417155;26;19995;-46
2024/04/18 01:31:04;;;;;;;12.43;6.17;;;5.20;99.90;;;;;;5417015;26;20373;-49
2024/04/18 01:33:31;;;;;;;12.13;6.57;;;5.20;99.90;;;;;;5417087;26;20068;-50
2024/04/18 01:35:57;;;;;;;11.10;6.70;;;5.20;99.90;;;;;;5417160;26;20449;-51
2024/04/18 01:38:23;;;;;;;14.10;6.73;;;5.10;99.90;;;;;;5416662;26;20007;-51
2024/04/18 01:40:49;;;;;;;12.07;6.20;;;5.20;99.90;;;;;;5416890;26;19999;-50
2024/04/18 01:43:34;;;;;;;11.80;6.03;;;5.10;99.90;;;;;;5417120;26;20006;-52
2024/04/18 01:46:19;;;;;;;11.67;6.47;;;5.10;99.90;;;;;;5417081;26;20010;-46
2024/04/18 01:49:00;;;;;;;12.87;6.37;;;5.00;99.90;;;;;;5416057;26;20450;-47
2024/04/18 01:51:45;;;;;;;11.40;5.67;;;5.00;99.90;;;;;;5416858;26;20068;-48
2024/04/18 01:54:32;;;;;;;10.87;6.47;;;5.00;99.90;;;;;;5416125;26;19992;-47
2024/04/18 01:56:58;;;;;;;11.97;6.23;;;4.90;99.90;;;;;;5416816;26;20480;-48
2024/04/18 01:59:24;;;;;;;11.90;6.20;;;4.90;99.90;;;;;;5415823;26;20510;-49
2024/04/18 02:01:50;;;;;;;11.40;5.70;;;4.80;99.90;;;;;;5414954;26;19996;-49
2024/04/18 02:04:17;;;;;;;12.23;5.90;;;4.70;99.90;;;;;;5416954;26;20124;-50
2024/04/18 02:06:44;;;;;;;11.53;6.20;;;4.70;99.90;;;;;;5416619;26;20002;-49
2024/04/18 02:09:22;;;;;;;10.90;6.00;;;4.70;99.90;;;;;;5415901;26;20015;-49
2024/04/18 02:11:49;;;;;;;11.37;6.10;;;4.60;99.90;;;;;;5416456;26;20513;-47
2024/04/18 02:14:35;;;;;;;13.23;6.13;;;4.60;99.90;;;;;;5416434;26;20011;-49
2024/04/18 02:17:01;;;;;;;15.43;6.70;;;4.60;99.90;;;;;;5416567;26;19995;-48
2024/04/18 02:19:28;;;;;;;12.67;5.70;;;4.50;99.90;;;;;;5415288;26;20031;-47
2024/04/18 02:21:57;;;;;;;12.80;5.88;;;4.50;99.90;;;;;;5416334;26;20415;-48
2024/04/18 02:25:02;;;;;;;12.20;6.53;;;4.50;99.90;;;;;;5416255;26;20009;-47
2024/04/18 02:27:28;;;;;;;13.53;6.80;;;4.50;99.90;;;;;;5405171;26;19995;-50
2024/04/18 02:29:54;;;;;;;13.87;6.77;;;4.50;99.90;;;;;;5415349;26;20442;-48
2024/04/18 02:32:36;;;;;;;13.77;6.77;;;4.50;99.90;;;;;;5416299;26;20070;-48
2024/04/18 02:35:13;;;;;;;12.90;6.73;;;4.50;99.90;;;;;;5416322;26;20398;-50
2024/04/18 02:37:39;;;;;;;16.07;6.40;;;4.50;99.90;;;;;;5416603;26;20000;-46
2024/04/18 02:40:05;;;;;;;15.13;6.83;;;4.50;99.90;;;;;;5415261;26;19999;-49
2024/04/18 02:42:51;;;;;;;13.77;6.73;;;4.50;99.90;;;;;;5416628;26;19996;-51
2024/04/18 02:45:30;;;;;;;16.70;7.07;;;4.60;99.90;;;;;;5416403;26;20344;-47
2024/04/18 02:48:15;;;;;;;11.23;6.73;;;4.60;99.90;;;;;;5415326;26;20064;-46
2024/04/18 02:50:41;;;;;;;16.67;7.30;;;4.60;99.90;;;;;;5415911;26;20035;-46
2024/04/18 02:53:07;;;;;;;16.70;7.00;;;4.60;99.90;;;;;;5416000;26;20076;-47
2024/04/18 02:55:33;;;;;;;14.37;7.13;;;4.70;99.90;;;;;;5415817;26;20511;-47
2024/04/18 02:57:59;;;;;;;15.03;7.23;;;4.70;99.90;;;;;;5415097;26;20049;-51
2024/04/18 03:00:25;;;;;;;13.60;7.20;;;4.80;99.90;;;;;;5415846;26;19999;-48
2024/04/18 03:03:20;;;;;;;14.40;7.20;;;4.80;99.90;;;;;;5409901;26;20080;-47
2024/04/18 03:06:03;;;;;;;14.47;7.07;;;4.80;99.90;;;;;;5415642;26;20454;-49
2024/04/18 03:08:29;;;;;;;13.80;6.67;;;4.80;99.90;;;;;;5413610;26;20003;-48
2024/04/18 03:11:14;;;;;;;9.90;5.53;;;4.80;99.90;;;;;;5415738;26;20007;-47
2024/04/18 03:14:00;;;;;;;10.37;5.93;;;4.80;99.90;;;;;;5415666;26;20478;-47
2024/04/18 03:16:30;;;;;;;12.52;6.22;;;4.80;99.90;;;;;;5415479;26;20006;-47
2024/04/18 03:19:17;;;;;;;14.30;6.00;;;4.80;99.90;;;;;;5415086;26;19991;-46
2024/04/18 03:21:53;;;;;;;10.07;6.07;;;4.90;99.90;;;;;;5415586;26;20009;-47
2024/04/18 03:24:23;;;;;;;18.23;6.90;;;4.90;99.90;;;;;;5415485;26;20090;-50
2024/04/18 03:26:50;;;;;;;13.33;6.90;;;4.90;99.90;;;;;;5413485;26;20011;-50
2024/04/18 03:29:17;;;;;;;12.50;6.20;;;5.00;99.90;;;;;;5414528;26;19999;-49
2024/04/18 03:31:58;;;;;;;15.77;6.40;;;5.00;99.90;;;;;;5415233;26;20072;-49
2024/04/18 03:34:42;;;;;;;10.60;5.93;;;5.00;99.90;;;;;;5415379;26;20069;-48
2024/04/18 03:37:08;;;;;;;10.83;6.07;;;5.00;99.90;;;;;;5415146;26;20000;-47
2024/04/18 03:39:34;;;;;;;12.37;5.90;;;5.00;99.90;;;;;;5412637;26;20133;-47
2024/04/18 03:42:00;;;;;;;13.70;6.43;;;5.00;99.90;;;;;;5417194;26;19999;-48
2024/04/18 03:44:46;;;;;;;12.47;6.83;;;5.00;99.90;;;;;;5418493;26;20004;-48
2024/04/18 03:47:12;;;;;;;15.43;6.93;;;5.00;99.90;;;;;;5419259;26;20125;-47
2024/04/18 03:49:58;;;;;;;11.13;5.77;;;5.10;99.90;;;;;;5417387;26;20011;-47
2024/04/18 03:52:36;;;;;;;14.93;7.30;;;5.10;99.90;;;;;;5418581;26;20041;-51
2024/04/18 03:55:16;;;;;;;14.27;6.23;;;5.00;99.90;;;;;;5418570;26;20023;-46
2024/04/18 03:57:49;;;;;;;16.30;6.60;;;5.00;99.90;;;;;;5417778;26;20045;-48
2024/04/18 04:00:15;;;;;;;15.33;7.00;;;5.00;99.90;;;;;;5418399;26;20077;-49
2024/04/18 04:02:41;;;;;;;13.77;6.60;;;4.90;99.90;;;;;;5418374;26;20076;-47
2024/04/18 04:05:07;;;;;;;12.10;6.30;;;4.90;99.90;;;;;;5418250;26;20445;-47
2024/04/18 04:07:33;;;;;;;22.53;7.20;;;4.90;99.90;;;;;;5418119;26;20072;-46
2024/04/18 04:10:00;;;;;;;11.97;6.73;;;4.90;99.90;;;;;;5417400;26;20072;-49
2024/04/18 04:12:26;;;;;;;12.67;6.60;;;4.90;99.90;;;;;;5418557;26;19999;-46
2024/04/18 04:15:08;;;;;;;12.97;6.30;;;4.90;99.90;;;;;;5418169;26;20032;-48
2024/04/18 04:17:36;;;;;;;11.27;6.20;;;4.80;99.90;;;;;;5418412;26;19996;-47
2024/04/18 04:20:05;;;;;;;15.17;6.43;;;4.80;99.90;;;;;;5417874;26;20455;-46
2024/04/18 04:22:31;;;;;;;14.90;6.13;;;4.80;99.90;;;;;;5418163;26;20011;-50
2024/04/18 04:24:57;;;;;;;14.57;7.03;;;4.80;99.90;;;;;;5418199;26;20464;-52
2024/04/18 04:27:23;;;;;;;15.50;7.10;;;4.80;99.90;;;;;;5415096;26;20038;-52
2024/04/18 04:29:50;;;;;;;13.00;6.60;;;4.80;99.90;;;;;;5415283;26;20046;-46
2024/04/18 04:32:21;;;;;;;13.97;7.07;;;4.80;99.90;;;;;;5418509;26;20444;-47
2024/04/18 04:34:51;;;;;;;18.10;7.80;;;4.90;99.90;;;;;;5418577;26;20072;-47
2024/04/18 04:37:20;;;;;;;15.03;6.90;;;4.90;99.90;;;;;;5418177;26;20413;-47
2024/04/18 04:39:47;;;;;;;14.15;7.63;;;4.90;99.90;;;;;;5416297;26;20064;-48
2024/04/18 04:42:19;;;;;;;14.23;7.10;;;4.90;99.90;;;;;;5418343;26;20035;-51
2024/04/18 04:44:45;;;;;;;13.67;6.40;;;4.90;99.90;;;;;;5418119;26;20000;-47
2024/04/18 04:47:28;;;;;;;12.87;7.10;;;4.80;99.90;;;;;;5417825;26;19999;-48
2024/04/18 04:49:54;;;;;;;13.47;6.87;;;4.80;99.90;;;;;;5416912;26;19992;-48
2024/04/18 04:52:35;;;;;;;15.17;6.73;;;4.70;99.90;;;;;;5416405;26;20010;-50
2024/04/18 04:55:16;;;;;;;15.80;7.07;;;4.70;99.90;;;;;;5416210;26;20006;-48
2024/04/18 04:57:42;;;;;;;15.27;7.63;;;4.70;99.90;;;;;;5417540;26;20003;-48
2024/04/18 05:00:18;;;;;;;12.70;6.70;;;4.80;99.90;;;;;;5417388;26;19999;-47
2024/04/18 05:02:55;;;;;;;12.97;6.63;;;4.80;99.90;;;;;;5415432;26;20072;-50
2024/04/18 05:05:21;;;;;;;13.97;6.37;;;4.90;99.90;;;;;;5417700;26;20468;-47
2024/04/18 05:08:02;;;;;;;15.67;7.47;;;4.80;99.90;;;;;;5416774;26;20000;-48
2024/04/18 05:10:54;;;;;;;12.70;6.60;;;4.80;99.90;;;;;;5415317;26;20006;-48
2024/04/18 05:13:20;;;;;;;15.03;6.87;;;4.80;99.90;;;;;;5417370;26;20010;-46
2024/04/18 05:15:46;;;;;;;12.47;6.80;;;4.80;99.90;;;;;;5416625;26;20065;-51
2024/04/18 05:18:28;;;;;;;13.20;6.83;;;4.80;99.90;;;;;;5416780;26;20451;-48
2024/04/18 05:20:54;;;;;;;12.60;6.70;;;4.80;99.90;;;;;;5417135;26;19995;-47
2024/04/18 05:23:20;;;;;;;16.93;6.97;;;4.80;99.90;;;;;;5417306;26;19995;-51
2024/04/18 05:25:46;;;;;;;17.63;6.83;;;4.70;99.90;;;;;;5417448;26;20064;-49
2024/04/18 05:28:29;;;;;;;15.80;7.17;;;4.70;99.90;;;;;;5416618;26;20014;-48
2024/04/18 05:31:03;;;;;;;14.30;6.90;;;4.70;99.90;;;;;;5416975;26;20011;-49
2024/04/18 05:33:30;;;;;;;18.30;6.57;;;4.70;99.90;;;;;;5417545;26;20317;-49
2024/04/18 05:35:56;;;;;;;12.57;6.60;;;4.70;99.90;;;;;;5415986;26;20065;-50
2024/04/18 05:38:22;;;;;;;12.73;6.67;;;4.70;99.90;;;;;;5416290;26;19996;-52
2024/04/18 05:40:49;;;;;;;14.33;6.50;;;4.70;99.90;;;;;;5417159;26;20068;-51
2024/04/18 05:43:15;;;;;;;16.57;6.60;;;4.70;99.90;;;;;;5417369;26;20007;-51
2024/04/18 05:45:45;;;;;;;17.80;6.45;;;4.60;99.90;;;;;;5416877;26;20031;-48
2024/04/18 05:48:11;;;;;;;14.17;6.10;;;4.60;99.90;;;;;;5416187;26;20049;-49
2024/04/18 05:50:37;;;;;;;11.97;5.97;;;4.60;99.90;;;;;;5415882;26;19991;-49
2024/04/18 05:53:03;;;;;;;13.40;5.53;;;4.60;99.90;;;;;;5416764;26;20038;-47
2024/04/18 05:55:49;;;;;;;14.27;5.87;;;4.60;99.90;;;;;;5416854;26;19991;-50
2024/04/18 05:58:16;;;;;;;15.87;5.90;;;4.60;99.90;;;;;;5415749;26;20460;-47
2024/04/18 06:00:54;;;;;;;12.60;5.33;;;4.60;99.90;;;;;;5416888;26;20011;-49
2024/04/18 06:03:20;;;;;;;14.30;5.67;;;4.60;99.90;;;;;;5417328;26;20365;-49
2024/04/18 06:05:46;;;;;;;13.73;6.23;;;4.60;99.90;;;;;;5416226;26;19999;-52
2024/04/18 06:08:12;;;;;;;17.70;6.50;;;4.70;99.90;;;;;;5415942;26;20368;-49
2024/04/18 06:10:41;;;;;;;16.77;6.07;;;4.80;99.90;;;;;;5416022;26;20015;-49
2024/04/18 06:13:22;;;;;;;11.80;5.47;;;4.80;99.90;;;;;;5416750;26;20007;-50
2024/04/18 06:15:48;;;;;;;15.10;5.18;;;4.90;99.90;;;;;;5414581;26;20510;-47
2024/04/18 06:18:14;;;;;;;15.27;5.67;;;4.90;99.90;;;;;;5415441;26;19987;-48
2024/04/18 06:20:50;;;;;;;10.17;4.87;;;4.90;99.90;;;;;;5416445;26;20036;-49
2024/04/18 06:23:17;;;;;;;18.70;7.50;;;4.90;99.90;;;;;;5416673;26;20010;-49
2024/04/18 06:26:03;;;;;;;12.57;5.63;;;5.00;99.90;;;;;;5416036;26;20011;-49
2024/04/18 06:28:29;;;;;;;13.93;6.27;;;5.00;99.90;;;;;;5415588;26;20470;-47
2024/04/18 06:30:55;;;;;;;11.30;5.80;;;5.10;99.90;;;;;;5416303;26;20129;-47
2024/04/18 06:33:21;;;;;;;11.57;5.90;;;5.20;99.90;;;;;;5416245;26;20011;-51
2024/04/18 06:35:47;;;;;;;12.77;6.20;;;5.20;99.90;;;;;;5416365;26;20353;-48
2024/04/18 06:38:13;;;;;;;10.37;5.73;;;5.30;99.90;;;;;;5415815;26;20042;-50
2024/04/18 06:40:40;;;;;;;11.07;5.73;;;5.40;99.90;;;;;;5416183;26;19996;-50
2024/04/18 06:43:06;;;;;;;12.10;5.27;;;5.60;99.90;;;;;;5415110;26;20337;-47
2024/04/18 06:45:33;;;;;;;10.10;5.60;;;5.80;99.90;;;;;;5416362;26;20046;-51
2024/04/18 06:47:59;;;;;;;9.13;4.77;;;5.90;99.90;;;;;;5415335;26;20367;-51
2024/04/18 06:50:26;;;;;;;11.37;4.53;;;6.00;99.90;;;;;;5415853;26;20064;-47
2024/04/18 06:52:52;;;;;;;12.10;4.13;;;6.20;99.90;;;;;;5416373;26;20040;-49
2024/04/18 06:55:19;;;;;;;8.40;3.90;;;6.40;99.90;;;;;;5416043;26;19995;-48
2024/04/18 06:57:45;;;;;;;9.83;4.63;;;6.60;99.90;;;;;;5416271;26;20005;-50
2024/04/18 07:00:11;;;;;;;6.40;4.17;;;6.90;99.90;;;;;;5414953;26;20064;-50
2024/04/18 07:02:37;;;;;;;11.13;4.10;;;7.10;99.90;;;;;;5416016;26;19991;-52
2024/04/18 07:05:22;;;;;;;12.57;5.63;;;7.30;99.90;;;;;;5416146;26;20009;-48
2024/04/18 07:07:52;;;;;;;13.60;3.77;;;7.50;99.90;;;;;;5415004;26;20027;-51
2024/04/18 07:10:31;;;;;;;11.17;3.30;;;7.70;99.90;;;;;;5416064;26;20513;-50
2024/04/18 07:12:57;;;;;;;5.40;2.30;;;7.90;99.90;;;;;;5414191;26;20065;-51
2024/04/18 07:15:23;;;;;;;6.57;2.10;;;8.10;99.90;;;;;;5414901;26;20069;-51
2024/04/18 07:18:09;;;;;;;7.47;2.57;;;8.10;99.90;;;;;;5414548;26;20074;-50
2024/04/18 07:20:35;;;;;;;9.07;2.20;;;8.10;99.90;;;;;;5415676;26;20000;-49
2024/04/18 07:23:04;;;;;;;5.95;2.15;;;8.10;99.90;;;;;;5415723;26;20010;-49
2024/04/18 07:25:30;;;;;;;5.30;2.10;;;8.20;99.90;;;;;;5415848;26;20517;-50
2024/04/18 07:27:56;;;;;;;7.30;1.97;;;8.30;99.90;;;;;;5414413;26;20440;-50
2024/04/18 07:30:22;;;;;;;6.10;2.00;;;8.30;99.90;;;;;;5415276;26;20509;-52
2024/04/18 07:32:48;;;;;;;10.17;2.60;;;8.40;99.90;;;;;;5415441;26;19999;-47
2024/04/18 07:35:14;;;;;;;10.20;2.13;;;8.40;99.90;;;;;;5415745;26;20005;-51
2024/04/18 07:37:40;;;;;;;5.67;2.10;;;8.30;99.90;;;;;;5413665;26;20045;-52
2024/04/18 07:40:15;;;;;;;6.33;1.90;;;8.20;99.90;;;;;;5414431;26;19999;-50
2024/04/18 07:42:41;;;;;;;6.73;2.30;;;8.30;99.90;;;;;;5415253;26;19995;-51
2024/04/18 07:45:07;;;;;;;4.27;1.77;;;8.30;99.90;;;;;;5415164;26;20340;-52
2024/04/18 07:47:33;;;;;;;7.03;1.83;;;8.50;99.90;;;;;;5415242;26;20188;-47
2024/04/18 07:49:59;;;;;;;7.67;2.00;;;8.60;99.90;;;;;;5414434;26;19995;-49
2024/04/18 07:52:26;;;;;;;5.80;2.00;;;8.80;99.90;;;;;;5414983;26;20325;-51
2024/04/18 07:54:52;;;;;;;6.37;2.07;;;9.00;99.90;;;;;;5414945;26;20007;-50
2024/04/18 07:57:18;;;;;;;6.47;2.47;;;9.10;99.90;;;;;;5415009;26;20502;-49
2024/04/18 07:59:44;;;;;;;4.87;1.90;;;9.10;99.90;;;;;;5414004;26;19996;-51
2024/04/18 08:02:10;;;;;;;7.30;2.10;;;9.10;99.90;;;;;;5414109;26;20061;-48
2024/04/18 08:04:36;;;;;;;5.83;1.93;;;9.10;99.90;;;;;;5414923;26;20064;-49
2024/04/18 08:07:02;;;;;;;5.83;2.07;;;9.10;99.90;;;;;;5414742;26;19992;-49
2024/04/18 08:09:28;;;;;;;3.93;1.60;;;9.10;99.90;;;;;;5414148;26;20440;-47
2024/04/18 08:11:54;;;;;;;6.03;1.60;;;9.20;99.90;;;;;;5414933;26;19992;-50
2024/04/18 08:14:20;;;;;;;5.57;1.70;;;9.30;99.90;;;;;;5414691;26;20052;-50
2024/04/18 08:16:46;;;;;;;8.87;2.40;;;9.50;99.90;;;;;;5412813;26;19992;-47
2024/04/18 08:19:12;;;;;;;4.40;1.43;;;9.60;99.90;;;;;;5413755;26;19991;-51
2024/04/18 08:21:38;;;;;;;6.00;1.50;;;9.50;99.90;;;;;;5414406;26;20064;-50
2024/04/18 08:24:04;;;;;;;5.87;1.60;;;9.70;99.90;;;;;;5414709;26;19991;-46
2024/04/18 08:26:30;;;;;;;5.13;2.13;;;9.90;99.90;;;;;;5414529;26;19991;-50
2024/04/18 08:28:56;;;;;;;7.80;1.80;;;9.90;99.90;;;;;;5417051;26;20056;-46
2024/04/18 08:31:25;;;;;;;6.20;1.58;;;10.00;99.90;;;;;;5417919;26;19995;-51
2024/04/18 08:33:52;;;;;;;5.57;2.07;;;9.90;99.90;;;;;;5416928;26;19995;-49
2024/04/18 08:36:18;;;;;;;8.47;1.43;;;9.70;99.90;;;;;;5418164;26;20003;-50
2024/04/18 08:38:44;;;;;;;6.27;1.50;;;9.70;99.90;;;;;;5417192;26;19999;-50
2024/04/18 08:41:13;;;;;;;5.43;1.30;;;9.70;99.90;;;;;;5418030;26;19995;-50
2024/04/18 08:43:42;;;;;;;7.13;1.50;;;9.70;99.90;;;;;;5417979;26;20390;-50
2024/04/18 08:46:10;;;;;;;4.63;1.10;;;9.80;99.90;;;;;;5416213;26;20006;-51
2024/04/18 08:48:37;;;;;;;6.57;1.30;;;10.00;99.90;;;;;;5417148;26;20136;-51
2024/04/18 08:51:06;;;;;;;6.37;1.20;;;10.10;99.90;;;;;;5417633;26;20448;-50
2024/04/18 08:53:32;;;;;;;6.63;1.35;;;10.20;99.90;;;;;;5417968;26;20000;-48
2024/04/18 08:56:01;;;;;;;3.97;1.00;;;10.30;99.90;;;;;;5417882;26;20045;-51
2024/04/18 08:58:27;;;;;;;3.00;0.80;;;10.40;99.90;;;;;;5415197;26;19999;-49
2024/04/18 09:00:55;;;;;;;4.30;1.00;;;10.40;99.90;;;;;;5417616;26;19995;-51
2024/04/18 09:03:21;;;;;;;5.63;0.90;;;10.30;99.90;;;;;;5417627;26;20068;-51
2024/04/18 09:05:47;;;;;;;3.80;0.80;;;10.20;99.90;;;;;;5417745;26;20348;-51
2024/04/18 09:08:14;;;;;;;5.17;1.10;;;10.00;99.90;;;;;;5415145;26;20333;-46
2024/04/18 09:10:40;;;;;;;1.97;0.83;;;10.00;99.90;;;;;;5417282;26;19999;-51
2024/04/18 09:13:06;;;;;;;6.57;1.07;;;10.10;99.90;;;;;;5417356;26;20011;-51
2024/04/18 09:15:32;;;;;;;5.83;0.90;;;10.30;99.90;;;;;;5417405;26;20000;-50
2024/04/18 09:18:02;;;;;;;5.33;1.30;;;10.40;99.90;;;;;;5415979;26;20069;-49
2024/04/18 09:20:34;;;;;;;3.70;0.90;;;10.70;99.90;;;;;;5417244;26;20424;-51
2024/04/18 09:23:00;;;;;;;4.63;1.00;;;10.90;99.90;;;;;;5417397;26;20402;-47
2024/04/18 09:25:26;;;;;;;2.70;0.90;;;10.60;99.90;;;;;;5417643;26;20000;-51
2024/04/18 09:27:52;;;;;;;1.85;0.82;;;10.50;99.90;;;;;;5416456;26;20046;-49
2024/04/18 09:30:18;;;;;;;4.03;1.35;;;10.70;99.90;;;;;;5417169;26;19995;-51
2024/04/18 09:32:47;;;;;;;5.35;1.25;;;10.90;99.90;;;;;;5416672;26;19991;-49
2024/04/18 09:35:15;;;;;;;1.85;0.73;;;11.30;99.90;;;;;;5415679;26;20065;-52
2024/04/18 09:37:41;;;;;;;3.53;0.90;;;11.50;99.90;;;;;;5416143;26;19991;-48
2024/04/18 09:40:12;;;;;;;5.60;0.93;;;11.60;99.90;;;;;;5414842;26;19995;-47
2024/04/18 09:42:44;;;;;;;4.75;0.93;;;11.70;99.90;;;;;;5417090;26;20076;-49
2024/04/18 09:45:14;;;;;;;3.47;0.85;;;11.80;99.90;;;;;;5417042;26;20011;-49
2024/04/18 09:47:41;;;;;;;2.97;1.13;;;12.00;99.90;;;;;;5417188;26;20004;-49
2024/04/18 09:50:07;;;;;;;4.43;1.13;;;12.40;99.90;;;;;;5416010;26;20080;-49
2024/04/18 09:52:35;;;;;;;2.38;0.80;;;12.80;99.90;;;;;;5416802;26;20402;-50
2024/04/18 09:55:02;;;;;;;5.00;1.13;;;13.30;99.90;;;;;;5413838;26;20120;-49
2024/04/18 09:57:30;;;;;;;2.17;0.77;;;13.70;99.50;;;;;;5416457;26;20406;-46
2024/04/18 09:59:58;;;;;;;5.38;1.25;;;14.10;98.00;;;;;;5414368;26;19999;-49
2024/04/18 10:02:24;;;;;;;2.53;1.00;;;14.30;97.20;;;;;;5417294;26;20038;-49
2024/04/18 10:04:51;;;;;;;5.45;1.13;;;14.00;97.40;;;;;;5415150;26;19996;-49
2024/04/18 10:07:18;;;;;;;2.90;0.80;;;13.70;97.80;;;;;;5416813;26;19987;-46
2024/04/18 10:09:50;;;;;;;4.82;1.05;;;13.00;96.70;;;;;;5415950;26;19991;-47
2024/04/18 10:12:18;;;;;;;3.97;1.20;;;12.90;99.90;;;;;;5417056;26;20072;-51
2024/04/18 10:14:44;;;;;;;4.13;1.10;;;13.00;98.80;;;;;;5416371;26;20001;-46
2024/04/18 10:17:23;;;;;;;4.88;1.25;;;13.00;97.50;;;;;;5416620;26;20046;-52
2024/04/18 10:19:51;;;;;;;;;;;12.90;98.60;;;;;;5416670;26;20455;-52
2024/04/18 10:22:17;;;;;;;7.65;2.35;;;12.60;98.00;;;;;;5416671;26;19949;-50
2024/04/18 10:24:49;;;;;;;3.10;1.25;;;12.90;99.90;;;;;;5416827;26;20339;-46
2024/04/18 10:27:19;;;;;;;2.05;1.00;;;13.30;99.00;;;;;;5416578;26;20011;-47
2024/04/18 10:29:58;;;;;;;2.25;0.63;;;13.70;98.80;;;;;;5415463;26;19995;-50
2024/04/18 10:32:29;;;;;;;3.50;1.00;;;14.20;96.40;;;;;;5416517;26;20557;-47
2024/04/18 10:34:55;;;;;;;5.20;1.30;;;14.10;95.20;;;;;;5416664;26;20011;-47
2024/04/18 10:37:22;;;;;;;2.33;0.70;;;14.10;96.70;;;;;;5415882;26;20352;-49
2024/04/18 10:39:49;;;;;;;4.28;1.20;;;14.20;97.20;;;;;;5414064;26;19992;-50
2024/04/18 10:42:20;;;;;;;3.95;1.30;;;14.40;95.90;;;;;;5416526;26;19996;-48
2024/04/18 10:44:47;;;;;;;6.43;1.20;;;14.30;95.70;;;;;;5413521;26;20007;-48
2024/04/18 10:47:13;;;;;;;2.13;0.80;;;14.00;96.20;;;;;;5416354;26;20004;-47
2024/04/18 10:49:39;;;;;;;4.90;1.55;;;13.50;95.40;;;;;;5415359;26;20371;-47
2024/04/18 10:52:10;;;;;;;3.33;0.98;;;13.20;96.50;;;;;;5416278;26;20000;-47
2024/04/18 10:54:37;;;;;;;3.30;1.05;;;13.40;96.70;;;;;;5414955;26;20460;-47
2024/04/18 10:57:03;;;;;;;3.63;0.85;;;14.00;96.90;;;;;;5416503;26;20034;-47
2024/04/18 10:59:29;;;;;;;4.70;1.10;;;14.50;97.10;;;;;;5415672;26;20000;-45
2024/04/18 11:02:05;;;;;;;3.25;0.88;;;15.20;93.60;;;;;;5416717;26;20045;-45
2024/04/18 11:04:32;;;;;;;3.20;0.90;;;14.90;92.70;;;;;;5416520;26;20024;-45
2024/04/18 11:06:58;;;;;;;3.17;0.95;;;14.30;94.70;;;;;;5417504;26;20008;-49
2024/04/18 11:09:24;;;;;;;4.15;0.82;;;14.30;95.40;;;;;;5415965;26;20068;-45
2024/04/18 11:11:50;;;;;;;4.45;0.73;;;14.50;96.10;;;;;;5417297;26;20333;-47
2024/04/18 11:14:18;;;;;;;1.48;0.80;;;14.80;94.90;;;;;;5417160;26;20074;-47
2024/04/18 11:16:44;;;;;;;3.20;0.80;;;15.20;92.30;;;;;;5416203;26;20450;-47
2024/04/18 11:19:11;;;;;;;6.45;1.33;;;15.40;91.50;;;;;;5416351;26;20041;-48
2024/04/18 11:21:37;;;;;;;2.63;1.10;;;15.30;92.70;;;;;;5415552;26;20349;-50
2024/04/18 11:24:03;;;;;;;7.07;2.58;;;15.50;92.90;;;;;;5415365;26;20077;-49
2024/04/18 11:26:29;;;;;;;5.03;2.20;;;15.40;92.50;;;;;;5413928;26;20518;-50
2024/04/18 11:28:57;;;;;;;8.77;2.78;;;15.10;92.50;;;;;;5414478;26;19999;-49
2024/04/18 11:31:23;;;;;;;6.47;2.25;;;15.00;92.40;;;;;;5415301;26;19999;-51
2024/04/18 11:33:49;;;;;;;2.78;1.40;;;15.10;93.60;;;;;;5415392;26;19995;-51
2024/04/18 11:36:15;;;;;;;4.38;1.00;;;15.30;92.30;;;;;;5415309;26;20464;-50
2024/04/18 11:38:42;;;;;;;3.33;1.10;;;15.10;91.80;;;;;;5414290;26;20028;-51
2024/04/18 11:41:08;;;;;;;3.85;0.57;;;14.80;90.90;;;;;;5413584;26;19996;-50
2024/04/18 11:43:34;;;;;;;3.45;0.75;;;14.50;90.20;;;;;;5414885;26;20010;-47
2024/04/18 11:46:00;;;;;;;2.75;0.52;;;14.40;90.50;;;;;;5413640;26;19995;-49
2024/04/18 11:48:26;;;;;;;1.55;0.70;;;14.50;91.90;;;;;;5414486;26;20401;-46
2024/04/18 11:50:52;;;;;;;1.50;0.70;;;14.50;91.60;;;;;;5415081;26;20064;-47
2024/04/18 11:53:19;;;;;;;3.50;1.10;;;14.60;90.80;;;;;;5415151;26;20002;-47
2024/04/18 11:55:45;;;;;;;2.25;0.82;;;14.50;93.10;;;;;;5415563;26;20444;-49
2024/04/18 11:58:26;;;;;;;2.28;0.80;;;14.50;91.00;;;;;;5414105;26;20003;-49
2024/04/18 12:00:52;;;;;;;3.17;0.80;;;14.50;92.50;;;;;;5414253;26;19992;-49
2024/04/18 12:03:37;;;;;;;2.03;0.88;;;14.40;93.00;;;;;;5417676;26;20460;-50
2024/04/18 12:06:24;;;;;;;2.72;0.65;;;14.60;92.50;;;;;;5418234;26;19996;-51
2024/04/18 12:08:51;;;;;;;2.08;0.63;;;14.70;91.40;;;;;;5417658;26;20010;-48
2024/04/18 12:11:27;;;;;;;1.63;0.60;;;14.40;91.50;;;;;;5418281;26;19999;-47
2024/04/18 12:14:10;;;;;;;2.28;0.85;;;14.10;92.40;;;;;;5418181;26;20068;-49
2024/04/18 12:16:53;;;;;;;3.88;0.70;;;13.80;93.00;;;;;;5399210;21;20081;-48
2024/04/18 12:19:19;;;;;;;4.10;0.70;;;13.60;93.20;;;;;;5381983;26;19992;-51
2024/04/18 12:21:45;;;;;;;2.58;0.90;;;13.40;93.10;;;;;;5382686;26;20003;-47
2024/04/18 12:24:11;;;;;;;2.38;0.90;;;13.10;94.30;;;;;;5382570;26;20000;-49
2024/04/18 12:26:38;;;;;;;1.23;0.70;;;12.80;93.80;;;;;;5382580;26;20523;-48
2024/04/18 12:29:05;;;;;;;2.03;0.80;;;12.60;95.60;;;;;;5380391;26;20000;-51
2024/04/18 12:31:51;;;;;;;1.60;0.60;;;12.70;95.80;;;;;;5380913;26;19992;-46
2024/04/18 12:34:17;;;;;;;4.35;0.80;;;13.00;95.20;;;;;;5382397;26;20058;-47
2024/04/18 12:37:01;;;;;;;2.08;0.60;;;13.20;94.80;;;;;;5382579;26;20453;-50
2024/04/18 12:39:27;;;;;;;2.75;0.70;;;13.30;93.90;;;;;;5381684;26;20066;-48
2024/04/18 12:41:53;;;;;;;2.97;0.85;;;13.30;93.00;;;;;;5382402;26;20021;-47
2024/04/18 12:44:34;;;;;;;3.85;0.70;;;13.40;93.80;;;;;;5380567;26;20004;-48
2024/04/18 12:47:19;;;;;;;1.33;0.60;;;13.80;93.40;;;;;;5382323;26;20028;-47
2024/04/18 12:49:46;;;;;;;1.00;0.60;;;14.00;93.50;;;;;;5382186;26;20032;-49
2024/04/18 12:52:16;;;;;;;3.65;1.00;;;14.00;94.50;;;;;;5380666;26;20004;-48
2024/04/18 12:54:42;;;;;;;3.63;0.70;;;14.20;93.50;;;;;;5383318;26;20036;-51
2024/04/18 12:57:20;;;;;;;2.45;0.75;;;14.20;93.20;;;;;;5382275;26;20062;-49
2024/04/18 13:00:16;;;;;;;0.90;0.50;;;13.90;93.80;;;;;;5365501;26;20007;-49
2024/04/18 13:02:57;;;;;;;2.53;0.60;;;13.50;92.70;;;;;;5382343;26;20098;-50